Time;durP1;ratioP1;P1;durP2;ratioP2;P2;SDS_P1;SDS_P2;PMS_P1;PMS_P2;Temp;Humidity;BMP_temperature;BMP_pressure;BME280_temperature;BME280_humidity;BME280_pressure;Samples;Min_cycle;Max_cycle;Signal;HPM_P1;HPM_P2
2023/01/01 00:02:01;;;;;;;12.23;8.43;;;;;;;;;;5025424;28;20195;-85
2023/01/01 00:04:30;;;;;;;7.95;5.57;;;;;;;;;;5018504;28;20230;-86
2023/01/01 00:06:58;;;;;;;5.10;4.20;;;;;;;;;;5019499;28;20199;-86
2023/01/01 00:12:11;;;;;;;3.78;3.25;;;;;;;;;;5018258;28;20698;-85
2023/01/01 00:14:41;;;;;;;3.22;2.42;;;;;;;;;;5017867;28;20265;-86
2023/01/01 00:17:10;;;;;;;3.75;3.33;;;;;;;;;;5018497;28;20685;-86
2023/01/01 00:19:41;;;;;;;5.35;3.10;;;;;;;;;;5017111;28;20746;-88
2023/01/01 00:22:09;;;;;;;2.38;2.17;;;;;;;;;;5017703;28;20191;-88
2023/01/01 00:24:37;;;;;;;3.35;2.85;;;;;;;;;;5018192;28;20229;-89
2023/01/01 00:27:04;;;;;;;3.20;2.67;;;;;;;;;;5018253;28;20194;-89
2023/01/01 00:29:33;;;;;;;5.05;4.28;;;;;;;;;;5017643;28;20219;-87
2023/01/01 00:32:00;;;;;;;3.80;2.92;;;;;;;;;;5018298;28;20191;-89
2023/01/01 00:34:29;;;;;;;2.80;2.60;;;;;;;;;;5022331;28;20219;-89
2023/01/01 00:36:58;;;;;;;4.10;2.83;;;;;;;;;;5021869;28;20238;-90
2023/01/01 00:39:26;;;;;;;3.53;2.83;;;;;;;;;;5023234;28;20252;-90
2023/01/01 00:41:53;;;;;;;2.90;2.63;;;;;;;;;;5022158;28;20203;-90
2023/01/01 00:44:21;;;;;;;4.65;3.90;;;;;;;;;;5022222;28;20630;-91
2023/01/01 00:46:49;;;;;;;2.90;2.60;;;;;;;;;;5022138;28;20195;-90
2023/01/01 00:49:17;;;;;;;3.10;2.78;;;;;;;;;;5023388;28;20211;-91
2023/01/01 00:51:46;;;;;;;3.67;2.85;;;;;;;;;;5022960;28;20210;-90
2023/01/01 00:54:13;;;;;;;3.70;3.03;;;;;;;;;;5022903;28;20378;-91
2023/01/01 00:56:42;;;;;;;4.50;4.03;;;;;;;;;;5023970;28;20215;-90
2023/01/01 00:59:10;;;;;;;4.05;3.17;;;;;;;;;;5023781;28;20571;-91
2023/01/01 01:01:39;;;;;;;6.25;2.92;;;;;;;;;;5023636;28;20338;-91
2023/01/01 01:04:08;;;;;;;4.60;2.45;;;;;;;;;;5022202;28;20242;-91
2023/01/01 01:06:36;;;;;;;6.97;3.70;;;;;;;;;;5023323;28;20239;-91
2023/01/01 01:09:06;;;;;;;5.28;3.85;;;;;;;;;;5024244;28;20551;-89
2023/01/01 01:11:33;;;;;;;5.25;3.08;;;;;;;;;;5021892;28;20246;-90
2023/01/01 01:14:01;;;;;;;4.25;3.25;;;;;;;;;;5021287;28;20266;-90
2023/01/01 01:16:35;;;;;;;5.50;3.95;;;;;;;;;;5021326;28;20266;-90
2023/01/01 01:19:05;;;;;;;4.72;3.33;;;;;;;;;;5021218;28;20262;-90
2023/01/01 01:21:34;;;;;;;4.05;2.90;;;;;;;;;;5021277;28;20226;-89
2023/01/01 01:24:23;;;;;;;3.50;2.85;;;;;;;;;;5020030;28;20254;-89
2023/01/01 01:26:50;;;;;;;5.38;2.92;;;;;;;;;;5022117;28;20715;-90
2023/01/01 01:29:18;;;;;;;2.63;2.42;;;;;;;;;;5021370;28;20698;-90
2023/01/01 01:31:45;;;;;;;2.92;2.20;;;;;;;;;;5020262;28;20298;-90
2023/01/01 01:34:19;;;;;;;3.25;2.65;;;;;;;;;;5019317;28;20258;-89
2023/01/01 01:36:47;;;;;;;3.05;2.75;;;;;;;;;;5018571;28;20207;-90
2023/01/01 01:39:15;;;;;;;5.80;3.95;;;;;;;;;;5020018;28;20578;-89
2023/01/01 01:41:44;;;;;;;4.65;3.15;;;;;;;;;;5018672;28;20203;-90
2023/01/01 01:44:48;;;;;;;2.97;2.58;;;;;;;;;;5019724;28;20896;-90
2023/01/01 01:47:28;;;;;;;4.57;3.17;;;;;;;;;;5020014;28;20215;-90
2023/01/01 01:49:59;;;;;;;3.25;2.40;;;;;;;;;;5020481;28;20223;-90
2023/01/01 01:52:29;;;;;;;2.30;2.10;;;;;;;;;;5020550;28;20237;-89
2023/01/01 01:54:56;;;;;;;2.40;2.20;;;;;;;;;;5020217;28;20671;-89
2023/01/01 01:57:25;;;;;;;3.78;3.25;;;;;;;;;;5019654;28;20231;-88
2023/01/01 01:59:56;;;;;;;4.57;3.13;;;;;;;;;;5019958;28;20210;-89
2023/01/01 02:02:30;;;;;;;3.92;2.85;;;;;;;;;;5011326;28;20175;-89
2023/01/01 02:04:58;;;;;;;3.20;2.90;;;;;;;;;;5001318;28;20321;-89
2023/01/01 02:07:27;;;;;;;4.32;3.35;;;;;;;;;;4995954;28;20211;-89
2023/01/01 02:09:54;;;;;;;3.47;3.15;;;;;;;;;;4995376;28;20704;-89
2023/01/01 02:12:23;;;;;;;4.35;3.05;;;;;;;;;;4995672;28;20231;-89
2023/01/01 02:14:51;;;;;;;3.03;2.70;;;;;;;;;;4995146;28;20318;-89
2023/01/01 02:17:24;;;;;;;4.00;3.40;;;;;;;;;;4995714;28;20267;-89
2023/01/01 02:20:12;;;;;;;5.93;5.32;;;;;;;;;;4995477;28;20211;-88
2023/01/01 02:23:28;;;;;;;5.32;4.22;;;;;;;;;;4995410;28;20299;-90
2023/01/01 02:26:15;;;;;;;5.38;3.47;;;;;;;;;;4995656;28;20295;-89
2023/01/01 02:28:53;;;;;;;3.42;3.13;;;;;;;;;;4995746;28;20705;-88
2023/01/01 02:31:24;;;;;;;3.83;3.53;;;;;;;;;;4995341;28;20275;-89
2023/01/01 02:33:55;;;;;;;3.90;3.50;;;;;;;;;;4995449;28;20310;-88
2023/01/01 02:36:24;;;;;;;6.50;4.95;;;;;;;;;;4995153;28;20207;-89
2023/01/01 02:38:55;;;;;;;6.03;4.03;;;;;;;;;;4995319;28;20250;-89
2023/01/01 02:41:26;;;;;;;6.60;3.70;;;;;;;;;;4995707;28;20310;-89
2023/01/01 02:43:55;;;;;;;4.28;3.85;;;;;;;;;;4995194;28;20652;-88
2023/01/01 02:46:22;;;;;;;5.38;4.43;;;;;;;;;;4995042;28;20631;-89
2023/01/01 02:48:52;;;;;;;4.47;3.80;;;;;;;;;;4994939;28;20624;-90
2023/01/01 02:51:29;;;;;;;4.78;4.28;;;;;;;;;;5012417;28;20237;-89
2023/01/01 02:54:03;;;;;;;4.68;3.47;;;;;;;;;;5014285;28;20230;-88
2023/01/01 02:56:40;;;;;;;3.83;3.53;;;;;;;;;;5013357;28;20193;-88
2023/01/01 03:02:22;;;;;;;6.28;4.25;;;;;;;;;;5014249;28;20182;-89
2023/01/01 03:05:02;;;;;;;5.28;3.97;;;;;;;;;;5014028;28;20242;-89
2023/01/01 03:07:40;;;;;;;3.85;3.42;;;;;;;;;;5013959;28;20191;-89
2023/01/01 03:10:19;;;;;;;4.30;3.90;;;;;;;;;;5014501;28;20190;-89
2023/01/01 03:12:54;;;;;;;4.03;3.70;;;;;;;;;;5014195;28;20197;-89
2023/01/01 03:15:28;;;;;;;4.95;4.43;;;;;;;;;;5014056;28;20228;-89
2023/01/01 03:18:01;;;;;;;6.00;4.13;;;;;;;;;;5013852;28;20175;-89
2023/01/01 03:20:33;;;;;;;5.35;4.85;;;;;;;;;;5013784;28;20561;-89
2023/01/01 03:23:06;;;;;;;4.72;4.22;;;;;;;;;;5013859;28;20789;-88
2023/01/01 03:25:38;;;;;;;6.00;5.18;;;;;;;;;;5013797;28;20700;-89
2023/01/01 03:28:10;;;;;;;5.47;4.70;;;;;;;;;;5013858;28;20278;-90
2023/01/01 03:30:40;;;;;;;5.13;4.68;;;;;;;;;;5014034;28;20246;-90
2023/01/01 03:33:14;;;;;;;4.22;3.83;;;;;;;;;;5013707;28;20190;-90
2023/01/01 03:35:48;;;;;;;4.38;3.53;;;;;;;;;;5013627;28;20297;-90
2023/01/01 03:38:19;;;;;;;3.63;3.17;;;;;;;;;;5013759;28;20274;-89
2023/01/01 03:40:48;;;;;;;4.32;3.92;;;;;;;;;;5014153;28;20226;-90
2023/01/01 03:43:22;;;;;;;4.35;3.88;;;;;;;;;;5013446;28;20779;-89
2023/01/01 03:45:51;;;;;;;5.03;4.40;;;;;;;;;;5013803;28;20613;-89
2023/01/01 03:48:19;;;;;;;6.78;5.20;;;;;;;;;;5013597;28;20199;-89
2023/01/01 03:51:02;;;;;;;4.38;3.97;;;;;;;;;;5013741;28;20234;-90
2023/01/01 03:53:38;;;;;;;4.65;4.05;;;;;;;;;;5013510;28;20254;-89
2023/01/01 03:56:13;;;;;;;5.10;4.00;;;;;;;;;;5013260;28;20293;-89
2023/01/01 03:58:46;;;;;;;6.70;4.30;;;;;;;;;;5013232;28;20218;-88
2023/01/01 04:01:21;;;;;;;6.75;5.30;;;;;;;;;;5013212;28;20294;-90
2023/01/01 04:03:49;;;;;;;4.78;3.90;;;;;;;;;;5013503;28;20226;-89
2023/01/01 04:06:16;;;;;;;4.45;3.40;;;;;;;;;;5013324;28;20245;-90
2023/01/01 04:08:44;;;;;;;4.63;3.60;;;;;;;;;;5013119;28;20249;-89
2023/01/01 04:14:01;;;;;;;3.60;3.30;;;;;;;;;;5013248;28;20706;-90
2023/01/01 04:16:31;;;;;;;5.22;4.60;;;;;;;;;;5013202;28;20586;-91
2023/01/01 04:18:58;;;;;;;5.63;4.00;;;;;;;;;;5013128;28;20578;-90
2023/01/01 04:21:25;;;;;;;5.25;4.47;;;;;;;;;;5012474;28;20265;-90
2023/01/01 04:23:53;;;;;;;4.50;4.10;;;;;;;;;;5012769;28;20309;-89
2023/01/01 04:26:20;;;;;;;3.88;3.35;;;;;;;;;;5012338;28;20231;-89
2023/01/01 04:28:48;;;;;;;4.35;3.90;;;;;;;;;;5013242;28;20205;-90
2023/01/01 04:31:15;;;;;;;4.32;3.92;;;;;;;;;;5012988;28;20286;-89
2023/01/01 04:33:44;;;;;;;5.22;4.68;;;;;;;;;;5012421;28;20281;-89
2023/01/01 04:36:12;;;;;;;5.00;4.50;;;;;;;;;;5012381;28;20635;-89
2023/01/01 04:38:39;;;;;;;4.70;3.85;;;;;;;;;;5012492;28;20203;-89
2023/01/01 04:41:07;;;;;;;4.93;4.45;;;;;;;;;;5012635;28;20289;-89
2023/01/01 04:43:34;;;;;;;7.00;4.90;;;;;;;;;;5012707;28;20310;-89
2023/01/01 04:46:03;;;;;;;5.32;4.60;;;;;;;;;;5012962;28;20290;-90
2023/01/01 04:48:32;;;;;;;4.38;3.97;;;;;;;;;;5012890;28;20634;-90
2023/01/01 04:51:04;;;;;;;3.80;3.40;;;;;;;;;;5011834;28;20199;-89
2023/01/01 04:53:34;;;;;;;5.30;4.03;;;;;;;;;;5013009;28;20233;-91
2023/01/01 04:56:05;;;;;;;5.20;3.88;;;;;;;;;;5012524;28;20314;-89
2023/01/01 04:58:32;;;;;;;4.82;4.05;;;;;;;;;;5013018;28;20197;-89
2023/01/01 05:01:00;;;;;;;6.90;4.68;;;;;;;;;;5012920;28;20199;-89
2023/01/01 05:03:28;;;;;;;4.90;4.40;;;;;;;;;;5012387;28;20254;-89
2023/01/01 05:06:03;;;;;;;5.63;4.28;;;;;;;;;;5012920;28;20214;-89
2023/01/01 05:08:31;;;;;;;5.38;4.90;;;;;;;;;;5012537;28;20277;-90
2023/01/01 05:11:02;;;;;;;3.75;3.45;;;;;;;;;;5012450;28;20627;-89
2023/01/01 05:13:29;;;;;;;5.10;4.60;;;;;;;;;;5012777;28;20788;-90
2023/01/01 05:15:57;;;;;;;5.55;4.65;;;;;;;;;;5012433;28;20310;-89
2023/01/01 05:18:24;;;;;;;5.72;4.57;;;;;;;;;;5012415;28;20234;-89
2023/01/01 05:20:52;;;;;;;5.35;4.80;;;;;;;;;;5014615;28;20646;-89
2023/01/01 05:23:21;;;;;;;5.38;4.88;;;;;;;;;;5016192;28;20905;-89
2023/01/01 05:25:48;;;;;;;4.78;4.10;;;;;;;;;;5016215;28;20286;-88
2023/01/01 05:28:16;;;;;;;5.03;4.53;;;;;;;;;;5016325;28;20246;-89
2023/01/01 05:30:43;;;;;;;6.43;4.97;;;;;;;;;;5015903;28;20241;-89
2023/01/01 05:33:11;;;;;;;6.18;4.80;;;;;;;;;;5015957;28;20294;-90
2023/01/01 05:35:39;;;;;;;4.25;3.88;;;;;;;;;;5015652;28;20269;-89
2023/01/01 05:38:50;;;;;;;5.55;5.05;;;;;;;;;;5015892;28;20674;-89
2023/01/01 05:41:19;;;;;;;5.45;4.53;;;;;;;;;;5016052;28;20632;-91
2023/01/01 05:43:46;;;;;;;7.93;5.65;;;;;;;;;;5015619;28;20706;-88
2023/01/01 05:46:17;;;;;;;8.35;4.70;;;;;;;;;;5014969;28;20554;-89
2023/01/01 05:48:45;;;;;;;5.80;4.65;;;;;;;;;;5015740;28;20184;-89
2023/01/01 05:51:15;;;;;;;7.68;4.97;;;;;;;;;;5015211;28;20209;-89
2023/01/01 05:53:43;;;;;;;4.90;4.25;;;;;;;;;;5015371;28;20227;-89
2023/01/01 05:56:13;;;;;;;6.72;4.65;;;;;;;;;;5015337;28;20223;-89
2023/01/01 05:58:41;;;;;;;5.25;4.72;;;;;;;;;;5015296;28;20194;-89
2023/01/01 06:01:11;;;;;;;4.57;4.13;;;;;;;;;;5015651;28;20724;-89
2023/01/01 06:03:39;;;;;;;5.18;4.50;;;;;;;;;;5015446;28;20584;-89
2023/01/01 06:06:09;;;;;;;5.28;4.78;;;;;;;;;;5015399;28;20302;-89
2023/01/01 06:08:36;;;;;;;5.43;4.90;;;;;;;;;;5015182;28;20203;-88
2023/01/01 06:11:07;;;;;;;4.05;3.50;;;;;;;;;;5015330;28;20226;-89
2023/01/01 06:13:36;;;;;;;4.65;4.20;;;;;;;;;;5015413;28;20223;-89
2023/01/01 06:16:05;;;;;;;4.45;4.05;;;;;;;;;;5015053;28;20225;-89
2023/01/01 06:18:34;;;;;;;5.90;4.85;;;;;;;;;;5015073;28;20659;-89
2023/01/01 06:21:07;;;;;;;4.65;4.22;;;;;;;;;;5015305;28;20262;-89
2023/01/01 06:23:35;;;;;;;3.45;3.15;;;;;;;;;;5015191;28;20227;-89
2023/01/01 06:26:08;;;;;;;4.20;3.80;;;;;;;;;;5015241;28;20203;-90
2023/01/01 06:28:37;;;;;;;6.13;4.72;;;;;;;;;;5014775;28;20195;-86
2023/01/01 06:31:06;;;;;;;6.45;5.28;;;;;;;;;;5014602;28;20195;-88
2023/01/01 06:33:34;;;;;;;5.20;4.70;;;;;;;;;;5014846;28;20225;-90
2023/01/01 06:36:03;;;;;;;6.35;4.38;;;;;;;;;;5014697;28;20322;-89
2023/01/01 06:38:32;;;;;;;4.97;4.57;;;;;;;;;;5014738;28;20547;-90
2023/01/01 06:41:01;;;;;;;5.63;4.93;;;;;;;;;;5014594;28;20202;-88
2023/01/01 06:43:31;;;;;;;7.97;5.50;;;;;;;;;;5014688;28;20226;-89
2023/01/01 06:46:06;;;;;;;5.35;4.85;;;;;;;;;;5014981;28;20640;-89
2023/01/01 06:48:36;;;;;;;4.95;4.43;;;;;;;;;;5014409;28;20201;-89
2023/01/01 06:51:07;;;;;;;5.43;4.88;;;;;;;;;;5014723;28;20206;-89
2023/01/01 06:53:35;;;;;;;5.75;4.78;;;;;;;;;;5014264;28;20305;-89
2023/01/01 06:56:03;;;;;;;6.55;5.90;;;;;;;;;;5014441;28;20378;-89
2023/01/01 06:58:30;;;;;;;5.85;4.70;;;;;;;;;;5014287;28;20195;-88
2023/01/01 07:01:06;;;;;;;4.88;4.38;;;;;;;;;;5014241;28;20294;-89
2023/01/01 07:03:34;;;;;;;5.50;4.85;;;;;;;;;;5014180;28;20250;-89
2023/01/01 07:06:01;;;;;;;6.38;5.05;;;;;;;;;;5013841;28;20242;-89
2023/01/01 07:08:29;;;;;;;3.92;3.60;;;;;;;;;;5014255;28;20682;-89
2023/01/01 07:10:56;;;;;;;4.50;4.03;;;;;;;;;;5014217;28;20289;-89
2023/01/01 07:13:24;;;;;;;4.32;3.92;;;;;;;;;;5013800;28;20223;-90
2023/01/01 07:15:52;;;;;;;3.97;3.60;;;;;;;;;;5014304;28;20667;-89
2023/01/01 07:18:22;;;;;;;4.28;3.45;;;;;;;;;;5013496;28;20322;-89
2023/01/01 07:20:50;;;;;;;4.93;4.13;;;;;;;;;;5013887;28;20203;-89
2023/01/01 07:23:17;;;;;;;6.78;5.45;;;;;;;;;;5013672;28;20305;-89
2023/01/01 07:25:45;;;;;;;8.02;5.30;;;;;;;;;;5013964;28;20613;-90
2023/01/01 07:28:13;;;;;;;4.10;3.70;;;;;;;;;;5014078;28;20290;-89
2023/01/01 07:30:40;;;;;;;6.38;5.05;;;;;;;;;;5013536;28;20290;-89
2023/01/01 07:33:12;;;;;;;5.38;4.10;;;;;;;;;;5013560;28;20293;-89
2023/01/01 07:35:43;;;;;;;5.07;3.10;;;;;;;;;;5013757;28;20621;-89
2023/01/01 07:38:11;;;;;;;4.68;3.78;;;;;;;;;;5013864;28;20207;-88
2023/01/01 07:40:39;;;;;;;3.97;3.53;;;;;;;;;;5013541;28;20285;-89
2023/01/01 07:43:06;;;;;;;3.03;2.72;;;;;;;;;;5012619;28;20270;-89
2023/01/01 07:45:34;;;;;;;3.50;3.13;;;;;;;;;;5013869;28;20234;-88
2023/01/01 07:48:02;;;;;;;3.78;2.80;;;;;;;;;;5013558;28;20747;-88
2023/01/01 07:50:32;;;;;;;3.75;3.08;;;;;;;;;;5013198;28;20290;-89
2023/01/01 07:53:01;;;;;;;4.15;3.75;;;;;;;;;;5013352;28;20195;-89
2023/01/01 07:55:28;;;;;;;3.78;3.42;;;;;;;;;;5013272;28;20234;-89
2023/01/01 07:57:56;;;;;;;3.35;2.88;;;;;;;;;;5013281;28;20233;-89
2023/01/01 08:00:23;;;;;;;2.53;2.33;;;;;;;;;;5012901;28;20666;-88
2023/01/01 08:02:51;;;;;;;2.63;2.42;;;;;;;;;;5013159;28;20583;-89
2023/01/01 08:05:19;;;;;;;3.30;2.80;;;;;;;;;;5013032;28;20317;-89
2023/01/01 08:07:48;;;;;;;3.00;2.80;;;;;;;;;;5017240;28;20732;-89
2023/01/01 08:10:18;;;;;;;2.95;2.67;;;;;;;;;;5016224;28;20289;-89
2023/01/01 08:12:46;;;;;;;3.28;2.25;;;;;;;;;;5016692;28;20241;-89
2023/01/01 08:15:15;;;;;;;2.95;2.47;;;;;;;;;;5017730;28;20617;-89
2023/01/01 08:17:42;;;;;;;4.22;3.25;;;;;;;;;;5017290;28;20321;-89
2023/01/01 08:20:10;;;;;;;2.47;2.25;;;;;;;;;;5017819;28;20210;-89
2023/01/01 08:22:38;;;;;;;3.80;3.35;;;;;;;;;;5017595;28;20196;-90
2023/01/01 08:25:07;;;;;;;4.03;3.15;;;;;;;;;;5017430;28;20259;-89
2023/01/01 08:27:37;;;;;;;3.70;2.72;;;;;;;;;;5015812;28;20246;-88
2023/01/01 08:30:05;;;;;;;3.45;2.75;;;;;;;;;;5017150;28;20187;-88
2023/01/01 08:32:44;;;;;;;3.22;2.92;;;;;;;;;;5017575;28;20203;-89
2023/01/01 08:35:12;;;;;;;3.92;3.13;;;;;;;;;;5017350;28;20239;-89
2023/01/01 08:37:40;;;;;;;3.45;2.85;;;;;;;;;;5017717;28;20660;-88
2023/01/01 08:40:11;;;;;;;4.15;2.88;;;;;;;;;;5017206;28;20245;-88
2023/01/01 08:42:40;;;;;;;3.13;2.17;;;;;;;;;;5018134;28;20241;-89
2023/01/01 08:45:09;;;;;;;4.28;3.17;;;;;;;;;;5017973;28;20254;-91
2023/01/01 08:47:37;;;;;;;3.40;2.60;;;;;;;;;;5017650;28;20234;-89
2023/01/01 08:50:06;;;;;;;3.55;2.70;;;;;;;;;;5018124;28;20199;-90
2023/01/01 08:52:34;;;;;;;3.83;2.50;;;;;;;;;;5018255;28;20238;-90
2023/01/01 08:55:01;;;;;;;1.90;1.73;;;;;;;;;;5018839;28;20223;-91
2023/01/01 08:57:31;;;;;;;3.42;3.10;;;;;;;;;;5020298;28;20245;-90
2023/01/01 09:00:00;;;;;;;4.30;2.35;;;;;;;;;;5020635;28;20199;-88
2023/01/01 09:02:27;;;;;;;2.38;1.75;;;;;;;;;;5003801;28;20715;-89
2023/01/01 09:04:55;;;;;;;4.57;2.20;;;;;;;;;;5001309;28;20266;-90
2023/01/01 09:07:23;;;;;;;3.13;2.42;;;;;;;;;;5015476;28;20203;-90
2023/01/01 09:09:50;;;;;;;3.53;2.83;;;;;;;;;;5023366;28;20206;-90
2023/01/01 09:12:18;;;;;;;2.42;1.98;;;;;;;;;;5024641;28;20200;-90
2023/01/01 09:14:48;;;;;;;3.33;2.95;;;;;;;;;;5024114;28;20578;-90
2023/01/01 09:17:17;;;;;;;2.53;2.33;;;;;;;;;;5022492;28;20192;-89
2023/01/01 09:19:54;;;;;;;3.42;1.98;;;;;;;;;;5021273;28;20203;-91
2023/01/01 09:22:22;;;;;;;1.95;1.73;;;;;;;;;;5020447;28;20171;-89
2023/01/01 09:25:21;;;;;;;1.77;1.60;;;;;;;;;;5021392;28;20269;-90
2023/01/01 09:27:49;;;;;;;2.13;1.85;;;;;;;;;;5026399;28;20290;-90
2023/01/01 09:30:18;;;;;;;2.05;1.70;;;;;;;;;;5037899;28;20213;-91
2023/01/01 09:32:48;;;;;;;2.58;2.13;;;;;;;;;;5053167;28;20198;-91
2023/01/01 09:35:16;;;;;;;3.17;1.80;;;;;;;;;;5038789;28;20241;-91
2023/01/01 09:37:43;;;;;;;2.15;1.90;;;;;;;;;;5031458;28;20282;-90
2023/01/01 09:40:28;;;;;;;3.47;1.80;;;;;;;;;;5012447;28;20238;-90
2023/01/01 09:43:07;;;;;;;2.90;2.60;;;;;;;;;;5009418;28;20204;-90
2023/01/01 09:45:40;;;;;;;4.18;2.95;;;;;;;;;;5008802;28;20183;-90
2023/01/01 09:48:14;;;;;;;2.00;1.85;;;;;;;;;;5022129;28;20188;-90
2023/01/01 09:50:59;;;;;;;2.22;1.95;;;;;;;;;;5018875;28;20199;-90
2023/01/01 09:53:34;;;;;;;2.63;2.13;;;;;;;;;;5018480;28;20210;-90
2023/01/01 09:56:03;;;;;;;2.00;1.50;;;;;;;;;;5018213;28;20159;-90
2023/01/01 09:58:38;;;;;;;3.78;1.60;;;;;;;;;;5018040;28;20219;-91
2023/01/01 10:01:12;;;;;;;1.52;1.42;;;;;;;;;;5018579;28;20197;-90
2023/01/01 10:03:48;;;;;;;1.88;1.60;;;;;;;;;;5018922;28;20229;-90
2023/01/01 10:06:24;;;;;;;4.55;2.38;;;;;;;;;;5017787;28;20206;-89
2023/01/01 10:09:13;;;;;;;1.20;1.17;;;;;;;;;;5018059;28;20214;-90
2023/01/01 10:11:49;;;;;;;2.05;1.52;;;;;;;;;;5018467;28;20203;-90
2023/01/01 10:14:24;;;;;;;1.52;1.42;;;;;;;;;;5018332;28;20215;-91
2023/01/01 10:16:54;;;;;;;2.63;1.48;;;;;;;;;;5018341;28;20195;-89
2023/01/01 10:19:31;;;;;;;3.20;1.65;;;;;;;;;;5006442;28;20195;-90
2023/01/01 10:22:22;;;;;;;1.60;1.50;;;;;;;;;;4997669;28;20188;-90
2023/01/01 10:24:54;;;;;;;2.38;1.90;;;;;;;;;;4998242;28;20310;-89
2023/01/01 10:27:31;;;;;;;2.50;2.17;;;;;;;;;;5009257;28;20227;-91
2023/01/01 10:29:58;;;;;;;2.00;1.90;;;;;;;;;;5017696;28;20788;-91
2023/01/01 10:32:35;;;;;;;1.60;1.50;;;;;;;;;;5017448;28;20209;-92
2023/01/01 10:35:14;;;;;;;4.40;2.25;;;;;;;;;;5017257;28;20652;-91
2023/01/01 10:37:42;;;;;;;1.67;1.58;;;;;;;;;;5017288;28;20183;-91
2023/01/01 10:40:17;;;;;;;1.85;1.75;;;;;;;;;;5017485;28;20223;-92
2023/01/01 10:42:49;;;;;;;2.17;1.50;;;;;;;;;;5000738;28;20182;-92
2023/01/01 10:45:19;;;;;;;2.60;1.70;;;;;;;;;;4998200;28;20255;-92
2023/01/01 10:48:14;;;;;;;1.50;1.40;;;;;;;;;;4997734;28;20267;-93
2023/01/01 10:50:55;;;;;;;3.20;1.80;;;;;;;;;;4997777;28;20250;-92
2023/01/01 10:53:30;;;;;;;1.85;1.55;;;;;;;;;;5010092;28;20991;-92
2023/01/01 10:56:02;;;;;;;2.00;1.80;;;;;;;;;;5036787;28;20202;-90
2023/01/01 10:58:53;;;;;;;2.08;1.92;;;;;;;;;;5037430;28;20305;-92
2023/01/01 11:01:23;;;;;;;2.22;1.50;;;;;;;;;;5013384;28;20214;-92
2023/01/01 11:04:00;;;;;;;2.38;2.17;;;;;;;;;;5022445;28;20219;-94
2023/01/01 11:06:33;;;;;;;2.40;1.90;;;;;;;;;;5019527;28;20280;-89
2023/01/01 11:09:03;;;;;;;3.13;1.80;;;;;;;;;;5017161;28;20199;-90
2023/01/01 11:11:32;;;;;;;2.35;1.30;;;;;;;;;;5017066;28;20230;-91
2023/01/01 11:14:04;;;;;;;1.88;1.38;;;;;;;;;;5017286;28;20269;-89
2023/01/01 11:16:33;;;;;;;1.58;1.30;;;;;;;;;;5016400;28;20618;-90
2023/01/01 11:19:06;;;;;;;2.40;1.60;;;;;;;;;;5016140;28;20207;-89
2023/01/01 11:21:36;;;;;;;1.73;1.48;;;;;;;;;;5017290;28;20203;-90
2023/01/01 11:24:18;;;;;;;2.30;1.50;;;;;;;;;;5017165;28;20222;-89
2023/01/01 11:26:45;;;;;;;2.85;2.05;;;;;;;;;;5016449;28;20171;-88
2023/01/01 11:29:27;;;;;;;1.85;1.52;;;;;;;;;;5016296;28;20263;-88
2023/01/01 11:31:55;;;;;;;3.78;1.98;;;;;;;;;;5016548;28;20163;-89
2023/01/01 11:34:30;;;;;;;1.40;1.30;;;;;;;;;;5016989;28;20239;-88
2023/01/01 11:37:19;;;;;;;1.38;1.27;;;;;;;;;;5016764;28;20275;-90
2023/01/01 11:39:49;;;;;;;1.38;1.27;;;;;;;;;;5026050;28;20268;-88
2023/01/01 11:42:19;;;;;;;1.52;1.20;;;;;;;;;;5036712;28;20196;-88
2023/01/01 11:45:19;;;;;;;2.22;1.40;;;;;;;;;;5015894;28;20219;-91
2023/01/01 11:47:49;;;;;;;2.42;2.22;;;;;;;;;;4999451;28;20720;-90
2023/01/01 11:50:25;;;;;;;1.38;1.27;;;;;;;;;;5016464;28;20230;-90
2023/01/01 11:52:57;;;;;;;1.52;1.38;;;;;;;;;;5016308;28;20705;-90
2023/01/01 11:55:36;;;;;;;1.42;1.33;;;;;;;;;;5023054;28;20194;-89
2023/01/01 11:58:18;;;;;;;1.58;1.33;;;;;;;;;;5036027;28;20224;-90
2023/01/01 12:00:47;;;;;;;2.17;1.65;;;;;;;;;;5015800;28;20301;-90
2023/01/01 12:03:24;;;;;;;1.90;1.40;;;;;;;;;;5015188;28;20639;-90
2023/01/01 12:05:56;;;;;;;2.17;1.92;;;;;;;;;;4995835;28;20246;-90
2023/01/01 12:08:34;;;;;;;1.70;1.52;;;;;;;;;;4997081;28;20234;-91
2023/01/01 12:11:10;;;;;;;2.60;1.90;;;;;;;;;;5036026;28;20244;-90
2023/01/01 12:13:49;;;;;;;2.40;1.83;;;;;;;;;;5032698;28;20237;-91
2023/01/01 12:16:45;;;;;;;2.58;1.50;;;;;;;;;;5016591;28;20206;-91
2023/01/01 12:19:15;;;;;;;2.00;1.80;;;;;;;;;;5016085;28;22105;-92
2023/01/01 12:21:44;;;;;;;1.25;1.15;;;;;;;;;;5015764;28;20600;-91
2023/01/01 12:24:14;;;;;;;1.35;1.25;;;;;;;;;;5015856;28;20301;-90
2023/01/01 12:27:04;;;;;;;1.42;1.20;;;;;;;;;;5016132;28;20234;-90
2023/01/01 12:29:44;;;;;;;1.42;1.33;;;;;;;;;;5017466;28;20237;-91
2023/01/01 12:32:19;;;;;;;1.23;1.20;;;;;;;;;;5019791;28;20266;-89
2023/01/01 12:34:57;;;;;;;2.55;1.40;;;;;;;;;;5019184;28;20222;-89
2023/01/01 12:37:39;;;;;;;1.65;1.55;;;;;;;;;;5019729;28;20255;-89
2023/01/01 12:40:43;;;;;;;9.80;6.45;;;;;;;;;;5018630;28;20660;-90
2023/01/01 12:43:12;;;;;;;16.30;10.65;;;;;;;;;;5012986;28;20289;-89
2023/01/01 12:46:07;;;;;;;8.45;6.32;;;;;;;;;;5021516;28;20297;-90
2023/01/01 12:48:53;;;;;;;8.00;5.82;;;;;;;;;;5013935;28;20195;-91
2023/01/01 12:51:32;;;;;;;5.05;3.38;;;;;;;;;;5019038;28;20274;-90
2023/01/01 12:54:32;;;;;;;3.45;1.98;;;;;;;;;;5019420;28;20805;-90
2023/01/01 12:57:06;;;;;;;2.15;1.95;;;;;;;;;;5015562;28;20299;-91
2023/01/01 12:59:38;;;;;;;1.98;1.83;;;;;;;;;;4998842;28;20274;-90
2023/01/01 13:02:13;;;;;;;2.05;1.40;;;;;;;;;;4999134;28;20183;-89
2023/01/01 13:04:42;;;;;;;2.00;1.33;;;;;;;;;;5002072;28;20316;-89
2023/01/01 13:07:14;;;;;;;2.10;1.45;;;;;;;;;;5029107;28;20207;-89
2023/01/01 13:09:53;;;;;;;1.65;1.23;;;;;;;;;;5019787;28;20191;-89
2023/01/01 13:12:25;;;;;;;1.52;1.40;;;;;;;;;;5019709;28;20205;-88
2023/01/01 13:14:52;;;;;;;2.00;1.30;;;;;;;;;;5019642;28;20225;-89
2023/01/01 13:17:30;;;;;;;1.80;1.65;;;;;;;;;;5020605;28;20684;-89
2023/01/01 13:19:59;;;;;;;1.13;1.00;;;;;;;;;;5021382;28;20233;-89
2023/01/01 13:22:41;;;;;;;1.48;1.38;;;;;;;;;;5020228;28;20282;-90
2023/01/01 13:25:21;;;;;;;1.42;1.33;;;;;;;;;;5020306;28;20242;-89
2023/01/01 13:28:14;;;;;;;2.90;1.35;;;;;;;;;;5001035;28;20604;-89
2023/01/01 13:30:52;;;;;;;2.00;1.70;;;;;;;;;;5003845;28;20203;-90
2023/01/01 13:33:28;;;;;;;7.35;2.75;;;;;;;;;;5019505;28;20223;-87
2023/01/01 13:36:32;;;;;;;1.58;1.40;;;;;;;;;;5019853;28;20207;-88
2023/01/01 13:39:01;;;;;;;1.40;1.30;;;;;;;;;;5002700;28;20194;-88
2023/01/01 13:41:39;;;;;;;1.50;1.27;;;;;;;;;;5018386;28;20219;-89
2023/01/01 13:44:24;;;;;;;1.83;1.20;;;;;;;;;;5020410;28;20254;-88
2023/01/01 13:47:11;;;;;;;2.75;2.00;;;;;;;;;;5021104;28;20206;-89
2023/01/01 13:49:55;;;;;;;1.40;1.30;;;;;;;;;;5022860;28;20195;-88
2023/01/01 13:53:05;;;;;;;1.40;1.30;;;;;;;;;;5017573;28;20279;-87
2023/01/01 13:55:57;;;;;;;2.35;1.48;;;;;;;;;;4965810;28;20260;-88
2023/01/01 13:59:03;;;;;;;2.30;1.30;;;;;;;;;;5001752;28;20210;-87
2023/01/01 14:01:56;;;;;;;1.08;1.08;;;;;;;;;;5007258;28;20250;-87
2023/01/01 14:04:37;;;;;;;1.88;1.38;;;;;;;;;;5020595;28;20333;-88
2023/01/01 14:07:16;;;;;;;1.38;1.25;;;;;;;;;;5019469;28;20644;-88
2023/01/01 14:09:43;;;;;;;1.42;1.33;;;;;;;;;;5015710;28;20667;-89
2023/01/01 14:12:17;;;;;;;0.98;0.98;;;;;;;;;;5015373;28;20242;-89
2023/01/01 14:14:45;;;;;;;2.17;1.23;;;;;;;;;;5015452;28;20215;-90
2023/01/01 14:17:15;;;;;;;2.60;1.60;;;;;;;;;;5016178;28;20294;-88
2023/01/01 14:19:43;;;;;;;2.70;1.77;;;;;;;;;;5015772;28;20203;-89
2023/01/01 14:22:14;;;;;;;2.47;1.38;;;;;;;;;;5015879;28;20250;-90
2023/01/01 14:24:45;;;;;;;1.10;1.10;;;;;;;;;;5016072;28;20238;-89
2023/01/01 14:27:19;;;;;;;4.32;1.38;;;;;;;;;;5015926;28;20707;-88
2023/01/01 14:29:48;;;;;;;2.88;1.75;;;;;;;;;;5015115;28;20194;-89
2023/01/01 14:32:24;;;;;;;3.28;1.50;;;;;;;;;;5014964;28;20249;-88
2023/01/01 14:35:00;;;;;;;1.50;1.40;;;;;;;;;;5015108;28;20253;-89
2023/01/01 14:37:28;;;;;;;2.42;1.27;;;;;;;;;;5015979;28;20675;-89
2023/01/01 14:40:16;;;;;;;1.02;0.93;;;;;;;;;;5015327;28;20198;-88
2023/01/01 14:42:44;;;;;;;1.27;1.17;;;;;;;;;;5002247;28;20576;-88
2023/01/01 14:45:16;;;;;;;2.28;1.27;;;;;;;;;;4995848;28;20768;-89
2023/01/01 14:47:48;;;;;;;1.52;1.15;;;;;;;;;;4995853;28;20648;-89
2023/01/01 14:50:23;;;;;;;1.70;1.40;;;;;;;;;;4996361;28;20259;-89
2023/01/01 14:52:55;;;;;;;3.78;1.52;;;;;;;;;;5009958;28;20222;-87
2023/01/01 14:55:23;;;;;;;2.13;1.48;;;;;;;;;;5015544;28;20223;-88
2023/01/01 14:57:57;;;;;;;1.90;1.20;;;;;;;;;;5014790;28;20226;-89
2023/01/01 15:00:27;;;;;;;1.52;1.10;;;;;;;;;;5014890;28;20266;-88
2023/01/01 15:03:07;;;;;;;5.22;1.70;;;;;;;;;;5015048;28;20195;-88
2023/01/01 15:05:36;;;;;;;1.98;1.80;;;;;;;;;;5015054;28;20289;-88
2023/01/01 15:08:08;;;;;;;1.67;1.58;;;;;;;;;;5027297;28;20281;-89
2023/01/01 15:10:37;;;;;;;1.40;1.33;;;;;;;;;;5034886;28;20775;-88
2023/01/01 15:13:07;;;;;;;2.38;1.63;;;;;;;;;;5034830;28;20199;-88
2023/01/01 15:15:41;;;;;;;2.85;1.65;;;;;;;;;;5034660;28;20197;-89
2023/01/01 15:18:40;;;;;;;1.80;1.70;;;;;;;;;;5033268;28;20277;-89
2023/01/01 15:21:15;;;;;;;2.05;1.58;;;;;;;;;;5015214;28;20203;-88
2023/01/01 15:23:52;;;;;;;2.22;1.60;;;;;;;;;;5014782;28;20215;-88
2023/01/01 15:26:29;;;;;;;3.85;1.50;;;;;;;;;;5015192;28;20205;-88